Map

Track Data

SID SEASON NUMBER BASIN SUBBASIN NAME ISO_TIME NATURE LAT LON WMO_WIND WMO_PRES WMO_AGENCY TRACK_TYPE DIST2LAND LANDFALL IFLAG USA_AGENCY USA_ATCF_ID USA_LAT USA_LON USA_RECORD USA_STATUS USA_WIND USA_PRES USA_SSHS USA_R34_NE USA_R34_SE USA_R34_SW USA_R34_NW USA_R50_NE USA_R50_SE USA_R50_SW USA_R50_NW USA_R64_NE USA_R64_SE USA_R64_SW USA_R64_NW USA_POCI USA_ROCI USA_RMW USA_EYE TOKYO_LAT TOKYO_LON TOKYO_GRADE TOKYO_WIND TOKYO_PRES TOKYO_R50_DIR TOKYO_R50_LONG TOKYO_R50_SHORT TOKYO_R30_DIR TOKYO_R30_LONG TOKYO_R30_SHORT TOKYO_LAND CMA_LAT CMA_LON CMA_CAT CMA_WIND CMA_PRES HKO_LAT HKO_LON HKO_CAT HKO_WIND HKO_PRES NEWDELHI_LAT NEWDELHI_LON NEWDELHI_GRADE NEWDELHI_WIND NEWDELHI_PRES NEWDELHI_CI NEWDELHI_DP NEWDELHI_POCI REUNION_LAT REUNION_LON REUNION_TYPE REUNION_WIND REUNION_PRES REUNION_TNUM REUNION_CI REUNION_RMW REUNION_R34_NE REUNION_R34_SE REUNION_R34_SW REUNION_R34_NW REUNION_R50_NE REUNION_R50_SE REUNION_R50_SW REUNION_R50_NW REUNION_R64_NE REUNION_R64_SE REUNION_R64_SW REUNION_R64_NW BOM_LAT BOM_LON BOM_TYPE BOM_WIND BOM_PRES BOM_TNUM BOM_CI BOM_RMW BOM_R34_NE BOM_R34_SE BOM_R34_SW BOM_R34_NW BOM_R50_NE BOM_R50_SE BOM_R50_SW BOM_R50_NW BOM_R64_NE BOM_R64_SE BOM_R64_SW BOM_R64_NW BOM_ROCI BOM_POCI BOM_EYE BOM_POS_METHOD BOM_PRES_METHOD NADI_LAT NADI_LON NADI_CAT NADI_WIND NADI_PRES WELLINGTON_LAT WELLINGTON_LON WELLINGTON_WIND WELLINGTON_PRES DS824_LAT DS824_LON DS824_STAGE DS824_WIND DS824_PRES TD9636_LAT TD9636_LON TD9636_STAGE TD9636_WIND TD9636_PRES TD9635_LAT TD9635_LON TD9635_WIND TD9635_PRES TD9635_ROCI NEUMANN_LAT NEUMANN_LON NEUMANN_CLASS NEUMANN_WIND NEUMANN_PRES MLC_LAT MLC_LON MLC_CLASS MLC_WIND MLC_PRES USA_GUST BOM_GUST BOM_GUST_PER REUNION_GUST REUNION_GUST_PER USA_SEAHGT USA_SEARAD_NE USA_SEARAD_SE USA_SEARAD_SW USA_SEARAD_NW STORM_SPEED STORM_DIR
1921355S15069 1922 72 SI MM NOT_NAMED 1921-12-20 18:00:00 NR -14.8000 68.8000 main 1317 1303 __________O___ -1 -14.8000 68.8000 7 2 218
1921355S15069 1922 72 SI MM NOT_NAMED 1921-12-20 21:00:00 NR -14.8765 68.7420 main 1303 1297 __________P___ -1 -14.8765 68.7420 7 2 217
1921355S15069 1922 72 SI MM NOT_NAMED 1921-12-21 00:00:00 NR -14.9724 68.6672 main 1297 1283 __________P___ -1 -14.9724 68.6672 7 3 218
1921355S15069 1922 72 SI MM NOT_NAMED 1921-12-21 03:00:00 NR -15.1071 68.5588 main 1283 1253 __________P___ -1 -15.1071 68.5588 7 4 219
1921355S15069 1922 72 SI MM NOT_NAMED 1921-12-21 06:00:00 NR -15.3000 68.4000 main 1253 1224 __________O___ -1 -15.3000 68.4000 7 6 219
1921355S15069 1922 72 SI MM NOT_NAMED 1921-12-21 09:00:00 NR -15.5635 68.1796 main 1219 1175 __________P___ -1 -15.5635 68.1796 7 8 219
1921355S15069 1922 72 SI MM NOT_NAMED 1921-12-21 12:00:00 NR -15.8826 67.9102 main 1175 1131 __________P___ -1 -15.8826 67.9102 7 9 219
1921355S15069 1922 72 SI MM NOT_NAMED 1921-12-21 15:00:00 NR -16.2354 67.6107 main 1131 1083 __________P___ -1 -16.2354 67.6107 7 9 219
1921355S15069 1922 72 SI MM NOT_NAMED 1921-12-21 18:00:00 NR -16.6000 67.3000 main 1083 1041 __________O___ -1 -16.6000 67.3000 7 9 220
1921355S15069 1922 72 SI MM NOT_NAMED 1921-12-21 21:00:00 NR -16.9551 66.9911 main 1037 994 __________P___ -1 -16.9551 66.9911 7 9 220
1921355S15069 1922 72 SI MM NOT_NAMED 1921-12-22 00:00:00 NR -17.3151 66.6777 main 994 953 __________P___ -1 -17.3151 66.6777 7 9 220
1921355S15069 1922 72 SI MM NOT_NAMED 1921-12-22 03:00:00 NR -17.6676 66.3755 main 949 908 __________P___ -1 -17.6676 66.3755 7 9 219
1921355S15069 1922 72 SI MM NOT_NAMED 1921-12-22 06:00:00 NR -18.0000 66.1000 main 908 878 __________O___ -1 -18.0000 66.1000 7 8 218
1921355S15069 1922 72 SI MM NOT_NAMED 1921-12-22 09:00:00 NR -18.2883 65.8586 main 878 852 __________P___ -1 -18.2883 65.8586 7 7 218
1921355S15069 1922 72 SI MM NOT_NAMED 1921-12-22 12:00:00 NR -18.5573 65.6469 main 839 823 __________P___ -1 -18.5573 65.6469 7 7 215
1921355S15069 1922 72 SI MM NOT_NAMED 1921-12-22 15:00:00 NR -18.8227 65.4618 main 823 796 __________P___ -1 -18.8227 65.4618 7 6 211
1921355S15069 1922 72 SI MM NOT_NAMED 1921-12-22 18:00:00 NR -19.1000 65.3000 main 796 769 __________O___ -1 -19.1000 65.3000 7 7 211
1921355S15069 1922 72 SI MM NOT_NAMED 1921-12-22 21:00:00 NR -19.3984 65.1012 main 769 744 __________P___ -1 -19.3984 65.1012 7 7 210
1921355S15069 1922 72 SI MM NOT_NAMED 1921-12-23 00:00:00 NR -19.7124 64.9310 main 744 731 __________P___ -1 -19.7124 64.9310 7 7 202
1921355S15069 1922 72 SI MM NOT_NAMED 1921-12-23 03:00:00 NR -20.0452 64.8202 main 731 729 __________P___ -1 -20.0452 64.8202 7 7 190
1921355S15069 1922 72 SI MM NOT_NAMED 1921-12-23 06:00:00 NR -20.4000 64.8000 main 729 729 __________O___ -1 -20.4000 64.8000 7 8 174
1921355S15069 1922 72 SI MM NOT_NAMED 1921-12-23 09:00:00 NR -20.8070 64.9054 main 741 741 __________P___ -1 -20.8070 64.9054 7 9 161
1921355S15069 1922 72 SI MM NOT_NAMED 1921-12-23 12:00:00 NR -21.2302 65.1010 main 765 765 __________P___ -1 -21.2302 65.1010 7 9 154
1921355S15069 1922 72 SI MM NOT_NAMED 1921-12-23 15:00:00 NR -21.6383 65.3462 main 792 792 __________P___ -1 -21.6383 65.3462 7 9 149
1921355S15069 1922 72 SI MM NOT_NAMED 1921-12-23 18:00:00 NR -22.0000 65.6000 main 830 830 __________O___ -1 -22.0000 65.6000 7 8 146
1921355S15069 1922 72 SI MM NOT_NAMED 1921-12-23 21:00:00 NR -22.2927 65.8291 main 858 858 __________P___ -1 -22.2927 65.8291 7 7 143
1921355S15069 1922 72 SI MM NOT_NAMED 1921-12-24 00:00:00 NR -22.5274 66.0332 main 883 883 __________P___ -1 -22.5274 66.0332 7 6 140
1921355S15069 1922 72 SI MM NOT_NAMED 1921-12-24 03:00:00 NR -22.7234 66.2207 main 909 909 __________P___ -1 -22.7234 66.2207 7 5 138
1921355S15069 1922 72 SI MM NOT_NAMED 1921-12-24 06:00:00 NR -22.9000 66.4000 main 935 __________O___ -1 -22.9000 66.4000 7 5 137

About IBTrACS Database

This database is a web-friendly format of International Best Track Archive for Climate Stewardship (IBTrACS), a global best track data archive curated by NOAA dating back to 1842.

Updated: 2021-10-21